CheckWX is a tool to help pilots better visualize weather data.  It is not intended as a substitute for an official pre-flight weather briefing.

01:14:39 UTC

KMYR METAR
Myrtle Beach International Airport
Myrtle Beach, South Carolina, USA
Current

19 mins ago

KMYR 240056Z 34007KT 10SM OVC006 11/09 A3015 RMK AO2 SLP208 T01110094
Observed
Feb-24 @ 00:56 UTC
Wind
  • 340° at 7 KTS
Visibility
10 SM
Flight Rules
IFR
Cloud Levels
  • Overcast at 600' AGL
Temperature
11°C / 52°F
Dewpoint
C / 48°F
Humidity
88%
Altimeter
30.15" Hg
Pressure
1020.8 hPa
Previous

1 hour ago

KMYR 232356Z 35007KT 10SM OVC006 12/10 A3014 RMK AO2 SLP208 T01170100 10156 20106 50002
Observed
Feb-23 @ 23:56 UTC
Wind
  • 350° at 7 KTS
Visibility
10 SM
Flight Rules
IFR
Cloud Levels
  • Overcast at 600' AGL
Temperature
12°C / 54°F
Dewpoint
10°C / 50°F
Humidity
88%
Altimeter
30.14" Hg
Pressure
1020.8 hPa
Previous

2 hours ago

KMYR 232308Z 35008KT 10SM OVC008 12/10 A3015 RMK AO2 CIG 007V012
Observed
Feb-23 @ 23:08 UTC
Wind
  • 350° at 8 KTS
Visibility
10 SM
Flight Rules
IFR
Cloud Levels
  • Overcast at 800' AGL
Temperature
12°C / 54°F
Dewpoint
10°C / 50°F
Humidity
88%
Altimeter
30.15" Hg
Pressure
1021.02 hPa